Time;durP1;ratioP1;P1;durP2;ratioP2;P2;SDS_P1;SDS_P2;PMS_P1;PMS_P2;Temp;Humidity;BMP_temperature;BMP_pressure;BME280_temperature;BME280_humidity;BME280_pressure;Samples;Min_cycle;Max_cycle;Signal;HPM_P1;HPM_P2
2022/04/03 00:00:56;;;;;;;37.03;19.52;;;0.00;99.90;;;;;;4173387;28;20144;-62
2022/04/03 00:02:59;;;;;;;39.58;19.38;;;0.00;99.90;;;;;;4169531;28;20164;-63
2022/04/03 00:05:00;;;;;;;36.03;19.23;;;0.00;99.90;;;;;;4169570;28;20136;-62
2022/04/03 00:07:02;;;;;;;28.00;18.00;;;0.00;99.90;;;;;;4178204;28;20112;-63
2022/04/03 00:09:04;;;;;;;32.40;18.10;;;0.00;99.90;;;;;;4173882;28;20870;-61
2022/04/03 00:11:06;;;;;;;32.05;18.83;;;0.10;99.90;;;;;;4174162;28;20123;-63
2022/04/03 00:13:08;;;;;;;41.17;19.17;;;0.00;99.90;;;;;;4173317;28;20813;-62
2022/04/03 00:15:10;;;;;;;32.95;19.25;;;0.00;99.90;;;;;;4167047;28;20062;-62
2022/04/03 00:17:12;;;;;;;39.92;21.23;;;0.00;99.90;;;;;;4172914;28;20054;-62
2022/04/03 00:19:13;;;;;;;33.90;19.20;;;0.00;99.90;;;;;;4173824;28;20081;-62
2022/04/03 00:21:16;;;;;;;41.47;21.10;;;0.00;99.90;;;;;;4169966;28;20073;-62
2022/04/03 00:23:19;;;;;;;36.60;22.33;;;0.10;99.90;;;;;;4176712;28;20932;-62
2022/04/03 00:25:22;;;;;;;35.47;19.75;;;0.00;99.90;;;;;;4175280;28;20111;-61
2022/04/03 00:27:23;;;;;;;35.90;19.92;;;0.10;99.90;;;;;;4178187;28;21221;-62
2022/04/03 00:29:25;;;;;;;36.78;18.88;;;0.10;99.90;;;;;;4165377;28;20101;-62
2022/04/03 00:31:27;;;;;;;31.42;19.05;;;0.00;99.90;;;;;;4174342;28;20135;-62
2022/04/03 00:33:29;;;;;;;33.08;19.02;;;0.10;99.90;;;;;;4179488;28;20057;-62
2022/04/03 00:35:31;;;;;;;32.20;18.83;;;0.10;99.90;;;;;;4175616;28;20069;-62
2022/04/03 00:37:33;;;;;;;32.58;18.48;;;0.10;99.90;;;;;;4172201;28;20058;-62
2022/04/03 00:39:35;;;;;;;30.67;17.92;;;0.10;99.90;;;;;;4173890;28;20062;-62
2022/04/03 00:41:38;;;;;;;38.92;20.45;;;0.10;99.90;;;;;;4172955;28;20042;-62
2022/04/03 00:43:40;;;;;;;34.33;18.27;;;0.10;99.90;;;;;;4173087;28;20097;-62
2022/04/03 00:45:45;;;;;;;37.03;18.10;;;0.10;99.90;;;;;;4176030;28;20200;-62
2022/04/03 00:47:55;;;;;;;33.97;19.67;;;0.10;99.90;;;;;;4176134;28;20058;-62
2022/04/03 00:49:57;;;;;;;37.05;20.65;;;0.10;99.90;;;;;;4172617;28;20131;-61
2022/04/03 00:51:59;;;;;;;40.83;20.27;;;0.10;99.90;;;;;;4170932;28;20062;-62
2022/04/03 00:54:01;;;;;;;42.38;21.58;;;0.00;99.90;;;;;;4178341;28;20167;-62
2022/04/03 00:56:03;;;;;;;37.30;19.27;;;0.10;99.90;;;;;;4186620;28;20044;-62
2022/04/03 00:58:05;;;;;;;36.25;18.45;;;0.10;99.90;;;;;;4179368;28;20204;-61
2022/04/03 01:00:07;;;;;;;41.05;21.25;;;0.10;99.90;;;;;;4188065;28;20057;-61
2022/04/03 01:02:09;;;;;;;42.20;21.33;;;0.10;99.90;;;;;;4192332;28;20072;-61
2022/04/03 01:04:11;;;;;;;37.65;20.15;;;0.10;99.90;;;;;;4185140;28;20679;-61
2022/04/03 01:06:13;;;;;;;42.72;20.75;;;0.10;99.90;;;;;;4175132;28;20058;-61
2022/04/03 01:08:15;;;;;;;44.47;21.10;;;0.10;99.90;;;;;;4177697;28;20885;-62
2022/04/03 01:10:17;;;;;;;39.20;20.73;;;0.10;99.90;;;;;;4186269;28;20139;-61
2022/04/03 01:12:19;;;;;;;35.70;19.52;;;0.10;99.90;;;;;;4172537;28;20101;-61
2022/04/03 01:14:43;;;;;;;37.13;19.52;;;0.00;99.90;;;;;;4175264;28;20061;-62
2022/04/03 01:16:45;;;;;;;35.00;19.33;;;0.00;99.90;;;;;;4186160;28;20107;-61
2022/04/03 01:18:47;;;;;;;37.85;19.63;;;0.10;99.90;;;;;;4176532;28;21147;-60
2022/04/03 01:20:49;;;;;;;36.95;17.50;;;0.00;99.90;;;;;;4183737;28;20179;-61
2022/04/03 01:22:51;;;;;;;37.15;18.13;;;0.00;99.90;;;;;;4173498;28;20061;-60
2022/04/03 01:24:57;;;;;;;34.22;17.90;;;0.00;99.90;;;;;;4178331;28;20049;-62
2022/04/03 01:26:59;;;;;;;38.58;19.77;;;0.00;99.90;;;;;;4174885;28;20062;-62
2022/04/03 01:29:01;;;;;;;32.63;18.17;;;0.00;99.90;;;;;;4179705;28;20157;-61
2022/04/03 01:31:03;;;;;;;48.47;20.73;;;0.00;99.90;;;;;;4177240;28;20064;-60
2022/04/03 01:33:05;;;;;;;48.55;21.40;;;0.00;99.90;;;;;;4176084;28;20058;-61
2022/04/03 01:35:07;;;;;;;43.97;21.35;;;0.00;99.90;;;;;;4179130;28;20050;-61
2022/04/03 01:37:09;;;;;;;43.15;21.55;;;0.00;99.90;;;;;;4177594;28;20139;-61
2022/04/03 01:39:11;;;;;;;42.47;20.30;;;0.00;99.90;;;;;;4170914;28;20054;-61
2022/04/03 01:41:13;;;;;;;42.83;20.42;;;0.00;99.90;;;;;;4187104;28;20045;-61
2022/04/03 01:43:15;;;;;;;47.25;23.02;;;0.00;99.90;;;;;;4166285;28;20105;-60
2022/04/03 01:45:16;;;;;;;45.88;20.42;;;0.00;99.90;;;;;;4180230;28;20100;-61
2022/04/03 01:47:18;;;;;;;44.50;22.58;;;0.00;99.90;;;;;;4164581;28;20641;-61
2022/04/03 01:49:20;;;;;;;48.97;22.92;;;0.00;99.90;;;;;;4173961;28;20061;-61
2022/04/03 01:51:22;;;;;;;48.67;22.05;;;0.00;99.90;;;;;;4194950;22;20089;-74
2022/04/03 01:53:25;;;;;;;50.58;23.02;;;0.00;99.90;;;;;;4159121;28;20094;-73
2022/04/03 01:55:27;;;;;;;48.10;22.02;;;0.00;99.90;;;;;;4158866;28;20050;-73
2022/04/03 01:57:29;;;;;;;39.45;20.20;;;0.00;99.90;;;;;;4146168;28;20895;-73
2022/04/03 01:59:32;;;;;;;38.80;20.33;;;0.00;99.90;;;;;;4163991;28;20172;-73
2022/04/03 02:01:34;;;;;;;34.95;19.55;;;0.00;99.90;;;;;;4156362;28;20054;-72
2022/04/03 02:03:36;;;;;;;41.45;20.63;;;0.00;99.90;;;;;;4158773;28;20065;-73
2022/04/03 02:05:38;;;;;;;43.47;21.77;;;0.00;99.90;;;;;;4160142;28;20112;-73
2022/04/03 02:07:40;;;;;;;39.72;18.30;;;0.00;99.90;;;;;;4158915;28;20792;-73
2022/04/03 02:09:42;;;;;;;38.92;20.23;;;0.00;99.90;;;;;;4154557;28;20185;-73
2022/04/03 02:11:44;;;;;;;34.20;18.33;;;0.10;99.90;;;;;;4155423;28;20638;-73
2022/04/03 02:13:46;;;;;;;38.28;17.40;;;0.10;99.90;;;;;;4158523;28;20058;-74
2022/04/03 02:15:47;;;;;;;35.63;17.92;;;0.10;99.90;;;;;;4157096;28;20628;-74
2022/04/03 02:17:49;;;;;;;31.27;17.90;;;0.10;99.90;;;;;;4154619;28;20104;-74
2022/04/03 02:19:51;;;;;;;41.25;20.50;;;0.10;99.90;;;;;;4155350;28;20090;-73
2022/04/03 02:21:54;;;;;;;32.60;17.05;;;0.10;99.90;;;;;;4158118;28;20175;-73
2022/04/03 02:23:56;;;;;;;36.47;20.30;;;0.10;99.90;;;;;;4158553;28;20061;-74
2022/04/03 02:25:58;;;;;;;44.58;21.42;;;0.10;99.90;;;;;;4157067;28;20880;-74
2022/04/03 02:27:59;;;;;;;40.85;20.10;;;0.10;99.90;;;;;;4160295;28;20097;-74
2022/04/03 02:30:01;;;;;;;42.45;20.38;;;0.10;99.90;;;;;;4158564;28;20057;-74
2022/04/03 02:32:03;;;;;;;40.50;20.98;;;0.00;99.90;;;;;;4156533;28;20089;-73
2022/04/03 02:34:06;;;;;;;40.72;20.48;;;0.00;99.90;;;;;;4157713;28;20876;-73
2022/04/03 02:36:07;;;;;;;33.25;20.00;;;0.00;99.90;;;;;;4158507;28;20157;-73
2022/04/03 02:38:09;;;;;;;38.47;19.92;;;0.00;99.90;;;;;;4156414;28;20157;-74
2022/04/03 02:40:14;;;;;;;37.80;19.70;;;0.00;99.90;;;;;;4158236;28;20069;-73
2022/04/03 02:42:16;;;;;;;37.28;20.75;;;0.00;99.90;;;;;;4163235;28;20049;-73
2022/04/03 02:44:18;;;;;;;36.08;20.98;;;0.00;99.90;;;;;;4156340;28;20134;-74
2022/04/03 02:46:20;;;;;;;33.80;19.08;;;0.10;99.90;;;;;;4157001;28;20168;-74
2022/04/03 02:48:22;;;;;;;41.53;21.52;;;0.00;99.90;;;;;;4158249;28;20105;-73
2022/04/03 02:50:25;;;;;;;38.72;22.42;;;0.00;99.90;;;;;;4157653;28;20125;-73
2022/04/03 02:52:27;;;;;;;38.58;18.88;;;0.00;99.90;;;;;;4159928;28;20065;-73
2022/04/03 02:54:29;;;;;;;37.03;19.90;;;0.00;99.90;;;;;;4164637;28;20057;-73
2022/04/03 02:56:31;;;;;;;37.72;20.67;;;0.10;99.90;;;;;;4155792;28;20058;-74
2022/04/03 02:58:32;;;;;;;39.85;19.58;;;0.10;99.90;;;;;;4156050;28;20097;-75
2022/04/03 03:00:35;;;;;;;37.83;19.88;;;0.10;99.90;;;;;;4160075;28;21305;-73
2022/04/03 03:02:37;;;;;;;38.65;20.80;;;0.10;99.90;;;;;;4157536;28;20066;-74
2022/04/03 03:04:39;;;;;;;41.42;21.75;;;0.10;99.90;;;;;;4156284;28;20058;-73
2022/04/03 03:06:40;;;;;;;39.50;19.67;;;0.00;99.90;;;;;;4161119;28;20088;-73
2022/04/03 03:08:42;;;;;;;42.15;22.17;;;0.10;99.90;;;;;;4157263;28;20808;-73
2022/04/03 03:10:44;;;;;;;38.60;20.55;;;0.00;99.90;;;;;;4158599;28;20896;-73
2022/04/03 03:12:46;;;;;;;31.80;18.05;;;0.00;99.90;;;;;;4152144;28;20846;-74
2022/04/03 03:14:48;;;;;;;42.72;23.13;;;0.10;99.90;;;;;;4158288;28;20058;-73
2022/04/03 03:16:50;;;;;;;41.33;20.90;;;0.10;99.90;;;;;;4157640;28;20804;-74
2022/04/03 03:18:52;;;;;;;40.47;20.33;;;0.00;99.90;;;;;;4160063;28;20062;-73
2022/04/03 03:20:54;;;;;;;38.42;20.50;;;0.00;99.90;;;;;;4154357;28;20085;-73
2022/04/03 03:22:56;;;;;;;34.05;18.85;;;0.00;99.90;;;;;;4153316;28;20123;-74
2022/04/03 03:25:05;;;;;;;35.97;17.92;;;0.10;99.90;;;;;;4156835;28;20062;-73
2022/04/03 03:27:06;;;;;;;39.17;19.58;;;0.10;99.90;;;;;;4157668;28;20914;-73
2022/04/03 03:29:08;;;;;;;39.03;20.45;;;0.10;99.90;;;;;;4145415;28;20189;-73
2022/04/03 03:31:10;;;;;;;31.63;17.88;;;0.10;99.90;;;;;;4161693;28;20628;-74
2022/04/03 03:33:12;;;;;;;33.60;20.13;;;0.10;99.90;;;;;;4161104;28;20236;-73
2022/04/03 03:35:14;;;;;;;36.03;19.13;;;0.10;99.90;;;;;;4157026;28;20080;-74
2022/04/03 03:37:16;;;;;;;32.28;17.17;;;0.10;99.90;;;;;;4156323;28;20183;-72
2022/04/03 03:39:18;;;;;;;39.25;19.90;;;0.10;99.90;;;;;;4152728;28;20061;-72
2022/04/03 03:41:20;;;;;;;36.88;19.13;;;0.10;99.90;;;;;;4156543;28;20046;-74
2022/04/03 03:43:22;;;;;;;32.35;17.90;;;0.10;99.90;;;;;;4158959;28;20109;-74
2022/04/03 03:45:24;;;;;;;32.60;19.10;;;0.10;99.90;;;;;;4159743;28;20064;-74
2022/04/03 03:47:26;;;;;;;48.58;20.90;;;0.10;99.90;;;;;;4155755;28;20128;-74
2022/04/03 03:49:28;;;;;;;28.38;17.05;;;0.10;99.90;;;;;;4162605;28;20088;-74
2022/04/03 03:51:30;;;;;;;35.60;17.67;;;0.10;99.90;;;;;;4154948;28;20930;-74
2022/04/03 03:53:34;;;;;;;33.42;18.80;;;0.10;99.90;;;;;;4156088;28;20125;-74
2022/04/03 03:55:36;;;;;;;40.35;19.92;;;0.10;99.90;;;;;;4162547;28;20164;-74
2022/04/03 03:57:38;;;;;;;34.78;18.63;;;0.10;99.90;;;;;;4152599;28;20160;-74
2022/04/03 03:59:40;;;;;;;32.45;17.33;;;0.10;99.90;;;;;;4157225;28;20058;-73
2022/04/03 04:01:42;;;;;;;39.70;19.75;;;0.10;99.90;;;;;;4159461;28;20068;-74
2022/04/03 04:03:44;;;;;;;37.33;19.75;;;0.10;99.90;;;;;;4165261;28;20061;-74
2022/04/03 04:05:46;;;;;;;37.88;20.02;;;0.00;99.90;;;;;;4161947;28;20180;-73
2022/04/03 04:07:48;;;;;;;32.85;18.85;;;0.10;99.90;;;;;;4142425;28;20062;-73
2022/04/03 04:09:50;;;;;;;38.85;18.50;;;0.00;99.90;;;;;;4162667;28;20176;-74
2022/04/03 04:11:52;;;;;;;40.08;19.95;;;0.00;99.90;;;;;;4163241;28;21083;-73
2022/04/03 04:13:53;;;;;;;35.30;19.60;;;0.00;99.90;;;;;;4165445;28;20789;-74
2022/04/03 04:15:55;;;;;;;31.55;17.52;;;0.10;99.90;;;;;;4166061;28;20865;-72
2022/04/03 04:17:57;;;;;;;34.85;19.30;;;0.10;99.90;;;;;;4163698;28;21207;-74
2022/04/03 04:19:58;;;;;;;33.22;19.13;;;0.10;99.90;;;;;;4167487;28;20879;-74
2022/04/03 04:22:00;;;;;;;38.10;17.33;;;0.10;99.90;;;;;;4162704;28;20101;-74
2022/04/03 04:24:02;;;;;;;30.73;17.70;;;0.00;99.90;;;;;;4160696;28;20097;-74
2022/04/03 04:26:04;;;;;;;27.33;17.30;;;0.10;99.90;;;;;;4144399;28;20169;-74
2022/04/03 04:28:06;;;;;;;31.77;17.15;;;0.10;99.90;;;;;;4166887;28;20651;-73
2022/04/03 04:30:09;;;;;;;30.02;17.70;;;0.10;99.90;;;;;;4165766;28;20168;-74
2022/04/03 04:32:13;;;;;;;27.60;16.95;;;0.10;99.90;;;;;;4164864;28;20093;-74
2022/04/03 04:34:16;;;;;;;34.13;18.55;;;0.10;99.90;;;;;;4165041;28;20893;-74
2022/04/03 04:36:18;;;;;;;29.85;16.50;;;0.10;99.90;;;;;;4163501;28;20804;-73
2022/04/03 04:38:20;;;;;;;28.80;16.90;;;0.10;99.90;;;;;;4146692;28;20100;-73
2022/04/03 04:40:22;;;;;;;29.08;16.90;;;0.00;99.90;;;;;;4165493;28;20050;-74
2022/04/03 04:42:24;;;;;;;31.75;17.20;;;0.10;99.90;;;;;;4163267;28;20054;-72
2022/04/03 04:44:25;;;;;;;32.65;16.88;;;0.10;99.90;;;;;;4167826;28;20049;-73
2022/04/03 04:46:27;;;;;;;36.63;19.42;;;0.10;99.90;;;;;;4148559;28;21568;-73
2022/04/03 04:48:29;;;;;;;37.25;17.83;;;0.10;99.90;;;;;;4167493;28;20062;-73
2022/04/03 04:50:31;;;;;;;30.98;17.70;;;0.10;99.90;;;;;;4164785;28;20057;-73
2022/04/03 04:52:34;;;;;;;39.03;20.02;;;0.00;99.90;;;;;;4145711;28;20053;-73
2022/04/03 04:54:36;;;;;;;35.63;19.27;;;0.00;99.90;;;;;;4165569;28;20156;-73
2022/04/03 04:56:39;;;;;;;40.03;18.05;;;0.10;99.90;;;;;;4167640;28;20886;-73
2022/04/03 04:58:41;;;;;;;33.78;18.52;;;0.00;99.90;;;;;;4165793;28;20108;-73
2022/04/03 05:00:43;;;;;;;25.35;15.30;;;0.00;99.90;;;;;;4165064;28;20129;-73
2022/04/03 05:02:46;;;;;;;39.03;20.25;;;0.00;99.90;;;;;;4155974;28;20101;-73
2022/04/03 05:04:47;;;;;;;39.00;21.08;;;0.10;99.90;;;;;;4166187;28;20663;-73
2022/04/03 05:06:50;;;;;;;32.67;18.30;;;0.00;99.90;;;;;;4166000;28;20068;-72
2022/04/03 05:08:53;;;;;;;34.22;18.92;;;0.00;99.90;;;;;;4159517;28;20090;-74
2022/04/03 05:10:55;;;;;;;38.63;19.45;;;0.00;99.90;;;;;;4146935;28;20129;-73
2022/04/03 05:12:57;;;;;;;34.47;19.42;;;0.00;99.90;;;;;;4161641;28;20185;-72
2022/04/03 05:14:59;;;;;;;31.00;18.77;;;0.00;99.90;;;;;;4167043;28;20180;-73
2022/04/03 05:17:01;;;;;;;33.67;17.50;;;0.00;99.90;;;;;;4162011;28;20100;-72
2022/04/03 05:19:03;;;;;;;28.73;16.27;;;0.00;99.90;;;;;;4152438;28;20058;-73
2022/04/03 05:21:07;;;;;;;35.35;17.98;;;0.00;99.90;;;;;;4159772;28;20101;-73
2022/04/03 05:23:08;;;;;;;34.42;19.52;;;0.10;99.90;;;;;;4161300;28;21185;-73
2022/04/03 05:25:11;;;;;;;30.38;17.00;;;0.00;99.90;;;;;;4159384;28;20165;-74
2022/04/03 05:27:13;;;;;;;38.88;19.02;;;0.10;99.90;;;;;;4168122;28;20938;-73
2022/04/03 05:29:15;;;;;;;37.05;20.52;;;0.10;99.90;;;;;;4159468;28;20162;-73
2022/04/03 05:31:17;;;;;;;32.08;17.35;;;0.10;99.90;;;;;;4158245;28;20780;-74
2022/04/03 05:33:19;;;;;;;35.70;17.20;;;0.10;99.90;;;;;;4161585;28;20057;-73
2022/04/03 05:35:21;;;;;;;39.28;19.90;;;0.00;99.90;;;;;;4162167;28;20120;-73
2022/04/03 05:37:23;;;;;;;43.72;21.60;;;0.10;99.90;;;;;;4144811;28;20922;-73
2022/04/03 05:39:25;;;;;;;42.13;19.52;;;0.00;99.90;;;;;;4159540;28;20172;-73
2022/04/03 05:41:27;;;;;;;41.97;20.15;;;-0.10;99.90;;;;;;4157990;28;20149;-73
2022/04/03 05:43:28;;;;;;;38.25;19.98;;;0.00;99.90;;;;;;4163772;28;20057;-73
2022/04/03 05:45:31;;;;;;;41.17;20.02;;;0.00;99.90;;;;;;4161273;28;20062;-74
2022/04/03 05:47:33;;;;;;;43.75;21.45;;;0.00;99.90;;;;;;4158839;28;20061;-74
2022/04/03 05:49:35;;;;;;;39.03;21.52;;;0.10;99.90;;;;;;4164035;28;20046;-74
2022/04/03 05:51:37;;;;;;;36.75;18.35;;;0.00;99.90;;;;;;4158767;28;20045;-72
2022/04/03 05:53:40;;;;;;;46.38;21.45;;;0.00;99.90;;;;;;4166164;28;20118;-73
2022/04/03 05:55:41;;;;;;;46.65;22.58;;;0.00;99.90;;;;;;4163391;28;20084;-72
2022/04/03 05:57:45;;;;;;;38.75;20.42;;;0.10;99.90;;;;;;4161867;28;20058;-73
2022/04/03 05:59:47;;;;;;;45.83;22.90;;;0.10;99.90;;;;;;4163605;28;20777;-73
2022/04/03 06:01:49;;;;;;;41.42;20.83;;;0.10;99.90;;;;;;4161164;28;20052;-74
2022/04/03 06:03:51;;;;;;;37.50;18.58;;;0.10;99.90;;;;;;4165217;28;20084;-73
2022/04/03 06:05:52;;;;;;;35.17;17.58;;;0.20;99.90;;;;;;4164537;28;20081;-73
2022/04/03 06:07:54;;;;;;;39.05;19.92;;;0.20;99.90;;;;;;4162906;28;20860;-73
2022/04/03 06:09:56;;;;;;;29.42;16.42;;;0.20;99.90;;;;;;4148332;28;20881;-72
2022/04/03 06:11:57;;;;;;;33.95;16.92;;;0.30;99.90;;;;;;4161415;28;20061;-73
2022/04/03 06:14:00;;;;;;;30.55;16.70;;;0.30;99.90;;;;;;4146196;28;20141;-75
2022/04/03 06:16:02;;;;;;;32.17;17.30;;;0.30;99.90;;;;;;4167546;28;20180;-72
2022/04/03 06:18:09;;;;;;;42.25;17.05;;;0.30;99.90;;;;;;4149713;28;20810;-74
2022/04/03 06:20:11;;;;;;;35.60;17.98;;;0.30;99.90;;;;;;4165073;28;20099;-75
2022/04/03 06:22:13;;;;;;;32.17;16.45;;;0.30;99.90;;;;;;4162230;28;20061;-73
2022/04/03 06:24:15;;;;;;;36.00;18.17;;;0.30;99.90;;;;;;4162645;28;20068;-74
2022/04/03 06:26:17;;;;;;;38.05;19.48;;;0.30;99.90;;;;;;4164642;28;20157;-73
2022/04/03 06:28:19;;;;;;;39.45;17.85;;;0.30;99.90;;;;;;4163087;28;20069;-73
2022/04/03 06:30:23;;;;;;;41.53;20.00;;;0.30;99.90;;;;;;4165794;28;20084;-72
2022/04/03 06:32:25;;;;;;;33.30;17.48;;;0.30;99.90;;;;;;4162894;28;20093;-73
2022/04/03 06:34:26;;;;;;;31.80;17.73;;;0.30;99.90;;;;;;4165529;28;20053;-72
2022/04/03 06:36:28;;;;;;;36.78;17.42;;;0.30;99.90;;;;;;4163880;28;20161;-73
2022/04/03 06:38:30;;;;;;;24.92;14.55;;;0.30;99.90;;;;;;4154576;28;20169;-73
2022/04/03 06:40:33;;;;;;;32.45;15.63;;;0.40;99.90;;;;;;4163030;28;20058;-74
2022/04/03 06:42:35;;;;;;;25.52;13.45;;;0.30;99.90;;;;;;4163115;28;20184;-71
2022/04/03 06:44:38;;;;;;;23.83;11.90;;;0.30;99.90;;;;;;4157614;28;20158;-73
2022/04/03 06:46:40;;;;;;;30.00;17.63;;;0.40;99.90;;;;;;4161345;28;20064;-77
2022/04/03 06:48:42;;;;;;;28.20;13.18;;;0.40;99.90;;;;;;4156044;28;20081;-75
2022/04/03 06:50:44;;;;;;;20.77;12.70;;;0.40;99.90;;;;;;4155187;28;20893;-74
2022/04/03 06:52:46;;;;;;;24.42;13.82;;;0.40;99.90;;;;;;4157548;28;20062;-73
2022/04/03 06:54:48;;;;;;;20.83;12.70;;;0.50;99.90;;;;;;4155928;28;20829;-73
2022/04/03 06:56:52;;;;;;;17.40;11.52;;;0.60;99.90;;;;;;4161617;28;20068;-74
2022/04/03 06:58:54;;;;;;;22.45;12.27;;;0.60;99.90;;;;;;4154346;28;20065;-74
2022/04/03 07:00:56;;;;;;;19.45;13.25;;;0.60;99.90;;;;;;4157227;28;20057;-73
2022/04/03 07:02:58;;;;;;;21.77;13.77;;;0.60;99.90;;;;;;4158734;28;20050;-73
2022/04/03 07:05:00;;;;;;;28.02;14.77;;;0.70;99.90;;;;;;4156187;28;20080;-73
2022/04/03 07:07:02;;;;;;;27.70;14.05;;;0.60;99.90;;;;;;4155115;28;20160;-73
2022/04/03 07:09:04;;;;;;;27.35;14.60;;;0.70;99.90;;;;;;4159616;28;20153;-74
2022/04/03 07:11:06;;;;;;;21.05;13.85;;;0.70;99.90;;;;;;4157591;28;20081;-74
2022/04/03 07:13:07;;;;;;;22.70;13.95;;;0.70;99.90;;;;;;4160345;28;20062;-74
2022/04/03 07:15:12;;;;;;;25.15;13.48;;;0.80;99.90;;;;;;4152569;28;20090;-74
2022/04/03 07:17:14;;;;;;;21.95;13.82;;;0.90;99.90;;;;;;4135988;28;20150;-73
2022/04/03 07:19:15;;;;;;;22.23;12.73;;;0.90;99.90;;;;;;4157727;28;20905;-77
2022/04/03 07:21:17;;;;;;;22.48;12.90;;;1.00;99.90;;;;;;4146936;28;20074;-73
2022/04/03 07:23:22;;;;;;;25.17;12.88;;;1.00;99.90;;;;;;4153145;28;20054;-73
2022/04/03 07:25:24;;;;;;;17.73;11.48;;;1.10;99.90;;;;;;4156623;28;20058;-73
2022/04/03 07:27:27;;;;;;;24.60;12.95;;;1.10;99.90;;;;;;4155850;28;20066;-73
2022/04/03 07:29:28;;;;;;;20.80;12.25;;;1.10;99.90;;;;;;4161416;28;20069;-73
2022/04/03 07:31:31;;;;;;;18.27;12.45;;;1.10;99.90;;;;;;4157916;28;20082;-72
2022/04/03 07:33:33;;;;;;;15.80;11.90;;;1.10;99.90;;;;;;4161745;28;20173;-73
2022/04/03 07:35:34;;;;;;;15.90;12.15;;;1.00;99.90;;;;;;4159822;28;20062;-73
2022/04/03 07:37:36;;;;;;;18.83;12.35;;;1.00;99.90;;;;;;4163365;28;20119;-73
2022/04/03 07:39:38;;;;;;;13.75;10.85;;;0.90;99.90;;;;;;4165120;28;20160;-72
2022/04/03 07:41:40;;;;;;;22.95;11.15;;;1.00;99.90;;;;;;4162406;28;20093;-72
2022/04/03 07:43:41;;;;;;;14.70;10.85;;;1.00;99.90;;;;;;4165618;28;20180;-72
2022/04/03 07:45:44;;;;;;;20.45;12.75;;;1.00;99.90;;;;;;4146803;28;20062;-72
2022/04/03 07:47:50;;;;;;;17.13;12.70;;;1.00;99.90;;;;;;4168725;28;20152;-73
2022/04/03 07:49:52;;;;;;;18.65;12.15;;;1.00;99.90;;;;;;4162399;28;20088;-73
2022/04/03 07:51:53;;;;;;;17.90;12.40;;;1.10;99.90;;;;;;4165997;28;20109;-74
2022/04/03 07:53:56;;;;;;;21.15;12.60;;;1.20;99.90;;;;;;4178974;22;20176;-80
2022/04/03 07:55:58;;;;;;;17.15;12.13;;;1.20;99.90;;;;;;4162080;28;20053;-80
2022/04/03 07:58:00;;;;;;;16.67;11.23;;;1.20;99.90;;;;;;4167128;28;20050;-80
2022/04/03 08:00:01;;;;;;;16.00;11.90;;;1.10;99.90;;;;;;4159933;28;20852;-81
2022/04/03 08:02:06;;;;;;;23.90;12.48;;;1.20;99.90;;;;;;4164106;28;20613;-79
2022/04/03 08:04:10;;;;;;;19.50;13.45;;;1.10;99.90;;;;;;4165450;28;20064;-79
2022/04/03 08:06:12;;;;;;;20.30;13.93;;;1.20;99.90;;;;;;4146490;28;20065;-80
2022/04/03 08:08:14;;;;;;;16.30;12.20;;;1.20;99.90;;;;;;4163691;28;20089;-79
2022/04/03 08:10:18;;;;;;;18.58;13.13;;;1.20;99.90;;;;;;4163207;28;20053;-78
2022/04/03 08:12:20;;;;;;;20.50;12.80;;;1.20;99.90;;;;;;4162458;28;20093;-80
2022/04/03 08:14:23;;;;;;;22.42;12.80;;;1.20;99.90;;;;;;4162547;28;20081;-81
2022/04/03 08:16:24;;;;;;;16.40;12.05;;;1.20;99.90;;;;;;4148648;28;20166;-81
2022/04/03 08:18:27;;;;;;;20.25;12.43;;;1.20;99.90;;;;;;4172153;28;20136;-82
2022/04/03 08:20:33;;;;;;;15.70;10.65;;;1.30;99.90;;;;;;4168217;28;20863;-81
2022/04/03 08:22:37;;;;;;;16.20;12.18;;;1.20;99.90;;;;;;4164671;28;20065;-79
2022/04/03 08:24:39;;;;;;;17.48;13.27;;;1.30;99.90;;;;;;4168220;28;20050;-82
2022/04/03 08:26:41;;;;;;;19.77;13.27;;;1.30;99.90;;;;;;4157542;28;20160;-80
2022/04/03 08:28:42;;;;;;;19.48;13.38;;;1.20;99.90;;;;;;4160806;28;20062;-80
2022/04/03 08:30:44;;;;;;;21.55;13.32;;;1.20;99.90;;;;;;4164384;28;20097;-79
2022/04/03 08:32:46;;;;;;;18.20;12.30;;;1.20;99.90;;;;;;4165884;28;20952;-79
2022/04/03 08:34:48;;;;;;;15.70;11.48;;;1.20;99.90;;;;;;4163038;28;20058;-79
2022/04/03 08:36:51;;;;;;;17.42;12.80;;;1.20;99.90;;;;;;4142029;28;20051;-82
2022/04/03 08:38:53;;;;;;;21.73;13.15;;;1.10;99.90;;;;;;4168684;28;20100;-81
2022/04/03 08:40:54;;;;;;;22.23;13.27;;;1.10;99.90;;;;;;4163525;28;20054;-81
2022/04/03 08:42:56;;;;;;;21.05;13.50;;;1.10;99.90;;;;;;4162916;28;20073;-81
2022/04/03 08:44:58;;;;;;;21.23;12.88;;;1.00;99.90;;;;;;4156516;28;20062;-82
2022/04/03 08:47:03;;;;;;;17.95;12.93;;;1.00;99.90;;;;;;4156507;28;21072;-81
2022/04/03 08:49:06;;;;;;;19.35;14.43;;;1.00;99.90;;;;;;4166195;28;20082;-82
2022/04/03 08:51:08;;;;;;;26.75;13.63;;;1.00;99.90;;;;;;4160575;28;20888;-83
2022/04/03 08:53:10;;;;;;;18.90;12.60;;;1.00;99.90;;;;;;4156346;28;20846;-83
2022/04/03 08:55:12;;;;;;;17.63;12.60;;;1.10;99.90;;;;;;4163208;28;20108;-85
2022/04/03 08:57:14;;;;;;;15.18;12.30;;;1.20;99.90;;;;;;4157741;28;20786;-84
2022/04/03 08:59:16;;;;;;;19.13;12.18;;;1.20;99.90;;;;;;4153614;28;20099;-84
2022/04/03 09:01:18;;;;;;;19.13;12.63;;;1.40;99.90;;;;;;4155130;28;20169;-85
2022/04/03 09:03:20;;;;;;;18.58;12.50;;;1.40;99.90;;;;;;4156426;28;21136;-84
2022/04/03 09:05:22;;;;;;;17.45;11.50;;;1.40;99.90;;;;;;4159541;28;20153;-84
2022/04/03 09:07:24;;;;;;;12.77;10.60;;;1.50;99.90;;;;;;4159233;28;20593;-84
2022/04/03 09:09:27;;;;;;;15.75;11.35;;;1.40;99.90;;;;;;4155920;28;20054;-85
2022/04/03 09:11:29;;;;;;;15.77;11.60;;;1.40;99.90;;;;;;4130361;28;20046;-84
2022/04/03 09:13:31;;;;;;;14.55;11.13;;;1.40;99.90;;;;;;4136102;28;20094;-84
2022/04/03 09:15:33;;;;;;;15.35;10.85;;;1.30;99.90;;;;;;4146029;28;20097;-83
2022/04/03 09:17:44;;;;;;;15.05;12.02;;;1.20;99.90;;;;;;4156143;28;20136;-83
2022/04/03 09:19:46;;;;;;;15.52;11.40;;;1.10;99.90;;;;;;4152021;28;20054;-83
2022/04/03 09:21:49;;;;;;;16.65;11.20;;;1.10;99.90;;;;;;4154166;28;20120;-84
2022/04/03 09:24:07;;;;;;;15.13;10.27;;;1.10;99.90;;;;;;4156182;28;20129;-83
2022/04/03 09:26:21;;;;;;;13.93;11.30;;;1.10;99.90;;;;;;4145379;28;20858;-83
2022/04/03 09:28:37;;;;;;;18.67;12.25;;;1.10;99.90;;;;;;4163601;28;20062;-82
2022/04/03 09:30:43;;;;;;;13.95;10.27;;;1.30;99.90;;;;;;4129700;28;20059;-86
2022/04/03 09:32:50;;;;;;;16.45;11.23;;;1.40;99.90;;;;;;4143724;28;20108;-85
2022/04/03 09:34:55;;;;;;;18.73;12.07;;;1.40;99.90;;;;;;4158832;28;20075;-84
2022/04/03 09:37:05;;;;;;;12.88;10.38;;;1.50;99.90;;;;;;4143836;28;20058;-80
2022/04/03 09:39:08;;;;;;;14.73;10.35;;;1.50;99.90;;;;;;4152379;28;20130;-81
2022/04/03 09:41:10;;;;;;;12.65;9.90;;;1.30;99.90;;;;;;4150626;28;20054;-78
2022/04/03 09:43:16;;;;;;;12.75;10.70;;;1.30;99.90;;;;;;4150015;28;20118;-79
2022/04/03 09:45:25;;;;;;;15.60;9.63;;;1.20;99.90;;;;;;4147881;28;20064;-77
2022/04/03 09:47:30;;;;;;;12.93;9.25;;;1.30;99.90;;;;;;4145851;28;20109;-79
2022/04/03 09:49:32;;;;;;;13.70;9.45;;;1.30;99.90;;;;;;4144273;28;20128;-78
2022/04/03 09:51:34;;;;;;;14.73;9.57;;;1.30;99.90;;;;;;4146308;28;20169;-78
2022/04/03 09:53:41;;;;;;;11.30;8.63;;;1.40;99.90;;;;;;4127316;28;20146;-80
2022/04/03 09:55:43;;;;;;;11.52;8.50;;;1.40;99.90;;;;;;4147704;28;20101;-78
2022/04/03 09:58:00;;;;;;;11.18;8.75;;;1.50;99.90;;;;;;4147103;28;20157;-80
2022/04/03 10:00:32;;;;;;;11.77;7.97;;;1.40;99.90;;;;;;4150245;28;20068;-78
2022/04/03 10:02:34;;;;;;;10.02;8.10;;;1.40;99.90;;;;;;4146382;28;20882;-79
2022/04/03 10:04:38;;;;;;;11.27;7.60;;;1.60;99.90;;;;;;4146916;28;20069;-79
2022/04/03 10:06:41;;;;;;;11.60;9.15;;;1.70;99.90;;;;;;4144509;28;20710;-79
2022/04/03 10:08:44;;;;;;;10.40;8.05;;;1.90;99.90;;;;;;4145058;28;20069;-79
2022/04/03 10:10:47;;;;;;;8.40;7.05;;;2.20;99.90;;;;;;4154639;28;20057;-78
2022/04/03 10:12:49;;;;;;;10.50;7.57;;;2.20;99.90;;;;;;4155615;28;20065;-78
2022/04/03 10:14:51;;;;;;;10.27;7.47;;;2.20;99.90;;;;;;4155775;28;20057;-78
2022/04/03 10:16:53;;;;;;;8.10;7.10;;;2.00;99.90;;;;;;4144131;28;20959;-77
2022/04/03 10:18:56;;;;;;;10.10;7.43;;;1.80;99.90;;;;;;4154006;28;20985;-78
2022/04/03 10:20:58;;;;;;;8.30;6.88;;;1.70;99.90;;;;;;4128105;28;20707;-77
2022/04/03 10:23:10;;;;;;;6.88;6.28;;;1.60;99.90;;;;;;4149313;28;20051;-78
2022/04/03 10:25:17;;;;;;;8.73;6.78;;;1.50;99.90;;;;;;4152959;28;20064;-77
2022/04/03 10:27:37;;;;;;;10.40;7.32;;;1.50;99.90;;;;;;4148440;28;20058;-77
2022/04/03 10:29:42;;;;;;;8.95;7.68;;;1.50;99.90;;;;;;4150530;28;20058;-80
2022/04/03 10:31:58;;;;;;;7.65;6.50;;;1.50;99.90;;;;;;4153627;28;20069;-79